Time;durP1;ratioP1;P1;durP2;ratioP2;P2;SDS_P1;SDS_P2;PMS_P1;PMS_P2;Temp;Humidity;BMP_temperature;BMP_pressure;BME280_temperature;BME280_humidity;BME280_pressure;Samples;Min_cycle;Max_cycle;Signal;HPM_P1;HPM_P2
2021/03/26 00:00:46;;;;;;;;;;;;;;;8.05;100.00;98203.59;5096208;28;19959;-82
2021/03/26 00:03:17;;;;;;;;;;;;;;;8.03;100.00;98192.88;5113530;27;19930;-82
2021/03/26 00:05:45;;;;;;;;;;;;;;;8.07;100.00;98193.63;5125413;27;20022;-81
2021/03/26 00:08:12;;;;;;;;;;;;;;;8.13;100.00;98168.84;5109566;28;20012;-82
2021/03/26 00:10:39;;;;;;;;;;;;;;;8.09;100.00;98174.50;5095408;27;19928;-82
2021/03/26 00:13:07;;;;;;;;;;;;;;;8.14;100.00;98173.19;5125706;27;20370;-82
2021/03/26 00:15:34;;;;;;;;;;;;;;;8.09;100.00;98173.72;5137709;27;20002;-82
2021/03/26 00:18:01;;;;;;;;;;;;;;;8.01;100.00;98189.75;5119729;27;20012;-82
2021/03/26 00:20:28;;;;;;;;;;;;;;;8.07;100.00;98168.59;5124521;27;19924;-82
2021/03/26 00:22:55;;;;;;;;;;;;;;;8.05;100.00;98168.22;5136163;27;19927;-82
2021/03/26 00:25:22;;;;;;;;;;;;;;;8.09;100.00;98168.91;5125558;27;19924;-82
2021/03/26 00:27:49;;;;;;;;;;;;;;;8.04;100.00;98151.97;5131335;27;20339;-82
2021/03/26 00:30:26;;;;;;;;;;;;;;;8.09;100.00;98160.56;5116978;28;20436;-82
2021/03/26 00:32:54;;;;;;;;;;;;;;;8.07;100.00;98149.13;5116735;28;19938;-82
2021/03/26 00:35:21;;;;;;;;;;;;;;;7.95;100.00;98151.75;5117011;28;20350;-82
2021/03/26 00:37:48;;;;;;;;;;;;;;;7.92;100.00;98149.81;5118232;27;20016;-82
2021/03/26 00:40:16;;;;;;;;;;;;;;;7.89;100.00;98148.66;5118734;27;20010;-82
2021/03/26 00:42:44;;;;;;;;;;;;;;;7.96;100.00;98148.53;5104294;27;20016;-82
2021/03/26 00:45:13;;;;;;;;;;;;;;;7.97;100.00;98141.75;5137078;27;20659;-82
2021/03/26 00:47:40;;;;;;;;;;;;;;;8.02;100.00;98140.47;5137219;27;19930;-81
2021/03/26 00:50:09;;;;;;;;;;;;;;;8.04;100.00;98138.03;5118501;27;19972;-82
2021/03/26 00:52:36;;;;;;;;;;;;;;;8.02;100.00;98127.34;5118499;27;19924;-82
2021/03/26 00:55:04;;;;;;;;;;;;;;;8.02;100.00;98119.00;5136851;27;19945;-82
2021/03/26 00:57:31;;;;;;;;;;;;;;;7.97;100.00;98125.06;5099503;27;19927;-82
2021/03/26 00:59:58;;;;;;;;;;;;;;;8.00;100.00;98126.97;5101564;27;20277;-82
2021/03/26 01:02:24;;;;;;;;;;;;;;;7.98;100.00;98123.84;5110132;28;20358;-82
2021/03/26 01:04:51;;;;;;;;;;;;;;;7.93;100.00;98110.44;5088784;28;19928;-81
2021/03/26 01:07:18;;;;;;;;;;;;;;;7.92;100.00;98103.31;5094053;28;20692;-82
2021/03/26 01:09:45;;;;;;;;;;;;;;;7.92;100.00;98094.94;5089988;27;20401;-82
2021/03/26 01:12:12;;;;;;;;;;;;;;;7.94;100.00;98095.31;5103380;28;20286;-82
2021/03/26 01:14:41;;;;;;;;;;;;;;;7.87;100.00;98089.91;5098297;28;19934;-82
2021/03/26 01:17:08;;;;;;;;;;;;;;;7.85;100.00;98081.22;5129960;27;19923;-82
2021/03/26 01:19:41;;;;;;;;;;;;;;;7.80;100.00;98081.69;5118102;27;19923;-82
2021/03/26 01:22:10;;;;;;;;;;;;;;;7.87;100.00;98076.00;5117956;27;20393;-82
2021/03/26 01:24:37;;;;;;;;;;;;;;;7.86;100.00;98062.53;5102484;27;20419;-82
2021/03/26 01:27:04;;;;;;;;;;;;;;;7.81;100.00;98049.91;5106681;28;20418;-82
2021/03/26 01:29:40;;;;;;;;;;;;;;;7.80;100.00;98062.22;5097136;27;19923;-82
2021/03/26 01:32:08;;;;;;;;;;;;;;;7.80;100.00;98059.44;5125046;27;20389;-82
2021/03/26 01:34:40;;;;;;;;;;;;;;;7.74;100.00;98058.38;5111889;28;19924;-82
2021/03/26 01:37:06;;;;;;;;;;;;;;;7.81;100.00;98047.13;5125643;27;19924;-82
2021/03/26 01:39:45;;;;;;;;;;;;;;;7.81;100.00;98049.13;5099843;28;19931;-82
2021/03/26 01:42:25;;;;;;;;;;;;;;;7.81;100.00;98046.34;5097712;28;19924;-82
2021/03/26 01:44:52;;;;;;;;;;;;;;;7.78;100.00;98049.97;5114372;28;19947;-82
2021/03/26 01:47:24;;;;;;;;;;;;;;;7.85;100.00;98047.84;5065798;28;19924;-82
2021/03/26 01:49:51;;;;;;;;;;;;;;;7.86;100.00;98032.72;5110701;27;19961;-82
2021/03/26 01:52:19;;;;;;;;;;;;;;;7.86;100.00;98032.72;5079659;28;19923;-81
2021/03/26 01:54:46;;;;;;;;;;;;;;;7.88;100.00;98029.50;5097087;28;19923;-82
2021/03/26 01:57:15;;;;;;;;;;;;;;;7.90;100.00;98024.28;5097116;28;20002;-82
2021/03/26 01:59:55;;;;;;;;;;;;;;;7.89;100.00;98015.16;5092398;28;19928;-82
2021/03/26 02:02:24;;;;;;;;;;;;;;;7.92;100.00;98024.66;5068775;28;19924;-82
2021/03/26 02:05:24;;;;;;;;;;;;;;;7.93;100.00;98007.53;5093345;28;19963;-82
2021/03/26 02:08:17;;;;;;;;;;;;;;;7.96;100.00;98008.66;5100395;28;20372;-82
2021/03/26 02:11:16;;;;;;;;;;;;;;;7.94;100.00;98006.31;5097961;28;20003;-82
2021/03/26 02:13:43;;;;;;;;;;;;;;;7.98;100.00;97990.31;5096593;28;19976;-82
2021/03/26 02:16:16;;;;;;;;;;;;;;;7.94;100.00;97989.63;5086305;27;19930;-82
2021/03/26 02:19:22;;;;;;;;;;;;;;;7.94;100.00;97983.28;5086996;28;19943;-81
2021/03/26 02:21:51;;;;;;;;;;;;;;;7.95;100.00;97993.97;5096726;28;19946;-82
2021/03/26 02:24:18;;;;;;;;;;;;;;;7.98;100.00;97984.00;5098802;27;19967;-82
2021/03/26 02:26:47;;;;;;;;;;;;;;;7.94;100.00;97984.06;5135290;27;20426;-83
2021/03/26 02:29:23;;;;;;;;;;;;;;;7.99;100.00;97980.78;5084394;28;19923;-82
2021/03/26 02:32:19;;;;;;;;;;;;;;;7.98;100.00;97979.19;5082271;28;20259;-82
2021/03/26 02:35:12;;;;;;;;;;;;;;;7.95;100.00;97960.59;5110539;28;20010;-82
2021/03/26 02:37:41;;;;;;;;;;;;;;;7.96;100.00;97975.28;5094305;27;20361;-82
2021/03/26 02:40:13;;;;;;;;;;;;;;;8.00;100.00;97965.66;5075716;28;20298;-82
2021/03/26 02:42:40;;;;;;;;;;;;;;;8.00;100.00;97971.22;5106667;28;19931;-82
2021/03/26 02:45:18;;;;;;;;;;;;;;;8.03;100.00;97959.22;5101232;27;20049;-82
2021/03/26 02:47:56;;;;;;;;;;;;;;;8.02;100.00;97954.88;5085378;28;20016;-82
2021/03/26 02:50:37;;;;;;;;;;;;;;;8.02;100.00;97956.88;5117136;27;19972;-82
2021/03/26 02:53:04;;;;;;;;;;;;;;;8.02;100.00;97943.75;5131493;27;19924;-82
2021/03/26 02:55:37;;;;;;;;;;;;;;;7.97;100.00;97930.34;5096092;28;19928;-82
2021/03/26 02:58:06;;;;;;;;;;;;;;;7.96;100.00;97948.25;5128656;28;19931;-81
2021/03/26 03:00:40;;;;;;;;;;;;;;;8.00;100.00;97937.84;5079376;28;19924;-82
2021/03/26 03:03:11;;;;;;;;;;;;;;;8.02;100.00;97935.41;5096010;28;19930;-82
2021/03/26 03:05:46;;;;;;;;;;;;;;;8.06;100.00;97924.97;5116470;28;19930;-81
2021/03/26 03:08:31;;;;;;;;;;;;;;;8.09;100.00;97924.09;5116457;28;19950;-82
2021/03/26 03:11:15;;;;;;;;;;;;;;;8.08;100.00;97927.31;5116429;28;19923;-82
2021/03/26 03:14:02;;;;;;;;;;;;;;;8.13;100.00;97930.38;5116328;28;20298;-82
2021/03/26 03:16:35;;;;;;;;;;;;;;;8.16;100.00;97917.59;5116144;28;19931;-82
2021/03/26 03:19:15;;;;;;;;;;;;;;;8.15;100.00;97905.66;5099462;28;19927;-82
2021/03/26 03:21:47;;;;;;;;;;;;;;;8.18;100.00;97909.59;5095881;28;20017;-82
2021/03/26 03:24:20;;;;;;;;;;;;;;;8.20;100.00;97907.16;5097796;28;19970;-82
2021/03/26 03:26:52;;;;;;;;;;;;;;;8.19;100.00;97917.50;5096323;28;19924;-82
2021/03/26 03:29:31;;;;;;;;;;;;;;;8.21;100.00;97906.72;5095851;28;19981;-82
2021/03/26 03:32:29;;;;;;;;;;;;;;;8.17;100.00;97886.56;5089460;28;19928;-82
2021/03/26 03:35:08;;;;;;;;;;;;;;;8.13;100.00;97837.78;5110945;28;20478;-82
2021/03/26 03:37:38;;;;;;;;;;;;;;;8.10;100.00;97892.31;5095834;28;19959;-82
2021/03/26 03:40:08;;;;;;;;;;;;;;;8.06;100.00;97905.50;5098952;28;19937;-82
2021/03/26 03:42:48;;;;;;;;;;;;;;;8.06;100.00;97894.38;5097059;28;19924;-82
2021/03/26 03:45:24;;;;;;;;;;;;;;;8.07;100.00;97892.38;5121367;28;19924;-82
2021/03/26 03:47:59;;;;;;;;;;;;;;;8.07;100.00;97890.38;5096349;28;19924;-82
2021/03/26 03:50:32;;;;;;;;;;;;;;;8.11;100.00;97893.06;5095738;28;19940;-82
2021/03/26 03:53:17;;;;;;;;;;;;;;;8.08;100.00;97894.72;5096079;28;19924;-82
2021/03/26 03:55:57;;;;;;;;;;;;;;;8.06;100.00;97886.03;5092278;28;19953;-82
2021/03/26 03:58:38;;;;;;;;;;;;;;;8.10;100.00;97889.53;5092645;28;19924;-82
2021/03/26 04:01:20;;;;;;;;;;;;;;;8.13;100.00;97874.75;5095680;28;19924;-82
2021/03/26 04:03:50;;;;;;;;;;;;;;;8.14;100.00;97875.50;5095912;28;19990;-82
2021/03/26 04:06:28;;;;;;;;;;;;;;;8.12;100.00;97875.94;5095768;28;20283;-82
2021/03/26 04:09:12;;;;;;;;;;;;;;;8.13;100.00;97863.63;5096268;28;19924;-82
2021/03/26 04:11:51;;;;;;;;;;;;;;;8.10;100.00;97867.25;5098643;28;19928;-82
2021/03/26 04:14:50;;;;;;;;;;;;;;;8.11;100.00;97849.34;5112290;27;19923;-82
2021/03/26 04:17:19;;;;;;;;;;;;;;;8.02;100.00;97863.09;5088994;28;19928;-82
2021/03/26 04:19:47;;;;;;;;;;;;;;;7.98;100.00;97861.63;5094723;27;19924;-82
2021/03/26 04:22:20;;;;;;;;;;;;;;;8.00;100.00;97859.16;5104440;28;19930;-82
2021/03/26 04:24:57;;;;;;;;;;;;;;;8.00;100.00;97857.16;5115760;28;19966;-82
2021/03/26 04:27:38;;;;;;;;;;;;;;;7.97;100.00;97855.25;5100602;28;19924;-82
2021/03/26 04:30:42;;;;;;;;;;;;;;;7.98;100.00;97859.59;5102782;28;19930;-82
2021/03/26 04:33:19;;;;;;;;;;;;;;;8.01;100.00;97828.13;5098714;28;20069;-82
2021/03/26 04:35:49;;;;;;;;;;;;;;;8.00;100.00;97825.78;5098661;28;19924;-82
2021/03/26 04:38:42;;;;;;;;;;;;;;;7.98;100.00;97834.56;5093967;28;20001;-82
2021/03/26 04:41:21;;;;;;;;;;;;;;;7.97;100.00;97833.00;5106834;27;20377;-83
2021/03/26 04:43:57;;;;;;;;;;;;;;;7.95;100.00;97832.66;5118674;27;19923;-82
2021/03/26 04:46:30;;;;;;;;;;;;;;;7.91;100.00;97811.72;5102595;27;19923;-82
2021/03/26 04:49:23;;;;;;;;;;;;;;;7.90;100.00;97827.63;5104620;27;20439;-83
2021/03/26 04:52:00;;;;;;;;;;;;;;;7.92;100.00;97821.63;5104434;28;20022;-82
2021/03/26 04:55:05;;;;;;;;;;;;;;;7.90;100.00;97822.06;5136978;27;19924;-82
2021/03/26 04:57:52;;;;;;;;;;;;;;;7.92;100.00;97814.06;5115428;27;19971;-82
2021/03/26 05:00:21;;;;;;;;;;;;;;;7.91;100.00;97797.81;5118861;27;19924;-82
2021/03/26 05:02:57;;;;;;;;;;;;;;;7.83;100.00;97808.31;5098443;28;19923;-82
2021/03/26 05:05:25;;;;;;;;;;;;;;;7.86;100.00;97793.56;5124932;27;20018;-82
2021/03/26 05:08:08;;;;;;;;;;;;;;;7.81;100.00;97802.44;5118379;27;20383;-82
2021/03/26 05:10:57;;;;;;;;;;;;;;;7.92;100.00;97793.81;5136358;27;19923;-82
2021/03/26 05:13:30;;;;;;;;;;;;;;;7.90;100.00;97799.03;5118383;27;19927;-82
2021/03/26 05:16:03;;;;;;;;;;;;;;;7.94;100.00;97794.94;5085087;28;19931;-83
2021/03/26 05:18:52;;;;;;;;;;;;;;;7.99;100.00;97808.31;5084722;27;19973;-82
2021/03/26 05:21:45;;;;;;;;;;;;;;;7.93;100.00;97767.56;5121871;27;20011;-82
2021/03/26 05:24:37;;;;;;;;;;;;;;;7.93;100.00;97776.69;5114884;27;20382;-82
2021/03/26 05:27:22;;;;;;;;;;;;;;;7.97;100.00;97777.38;5136654;27;19927;-82
2021/03/26 05:29:53;;;;;;;;;;;;;;;7.98;100.00;97784.50;5083461;28;19924;-82
2021/03/26 05:32:23;;;;;;;;;;;;;;;8.01;100.00;97778.06;5118190;27;19984;-82
2021/03/26 05:35:13;;;;;;;;;;;;;;;7.94;100.00;97761.56;5112827;27;19923;-82
2021/03/26 05:38:17;;;;;;;;;;;;;;;8.00;100.00;97776.50;5098727;27;20282;-82
2021/03/26 05:41:17;;;;;;;;;;;;;;;7.96;100.00;97764.69;5114328;27;19928;-82
2021/03/26 05:44:05;;;;;;;;;;;;;;;7.99;100.00;97765.81;5088093;27;20456;-82
2021/03/26 05:46:48;;;;;;;;;;;;;;;8.02;100.00;97774.06;5097492;28;19924;-82
2021/03/26 05:49:51;;;;;;;;;;;;;;;8.06;100.00;97763.63;5097353;28;19923;-82
2021/03/26 05:52:32;;;;;;;;;;;;;;;8.04;100.00;97749.38;5094445;28;19964;-82
2021/03/26 05:55:30;;;;;;;;;;;;;;;8.05;100.00;97753.72;5100703;27;19923;-82
2021/03/26 05:58:04;;;;;;;;;;;;;;;8.03;100.00;97756.16;5102771;27;19965;-82
2021/03/26 06:00:50;;;;;;;;;;;;;;;8.04;100.00;97749.38;5086334;28;19935;-82
2021/03/26 06:03:49;;;;;;;;;;;;;;;7.97;100.00;97735.66;5046382;28;19925;-82
2021/03/26 06:06:37;;;;;;;;;;;;;;;7.98;100.00;97740.00;5029970;28;20454;-82
2021/03/26 06:09:32;;;;;;;;;;;;;;;7.91;100.00;97731.84;5043283;28;19925;-82
2021/03/26 06:12:23;;;;;;;;;;;;;;;7.93;100.00;97732.19;5032672;28;19925;-82
2021/03/26 06:15:40;;;;;;;;;;;;;;;7.96;100.00;97734.09;5013919;28;19937;-82
2021/03/26 06:18:43;;;;;;;;;;;;;;;8.05;100.00;97727.91;5012142;28;19925;-82
2021/03/26 06:21:34;;;;;;;;;;;;;;;7.99;100.00;97732.44;5011428;28;19926;-82
2021/03/26 06:24:44;;;;;;;;;;;;;;;7.99;100.00;97719.31;4986940;28;19932;-82
2021/03/26 06:27:28;;;;;;;;;;;;;;;7.97;100.00;97732.88;5002431;28;19929;-82
2021/03/26 06:30:13;;;;;;;;;;;;;;;7.96;100.00;97722.97;4992280;28;19932;-82
2021/03/26 06:33:07;;;;;;;;;;;;;;;7.91;100.00;97728.28;4995799;28;20281;-83
2021/03/26 06:35:52;;;;;;;;;;;;;;;7.90;100.00;97732.28;4995929;28;19964;-82
2021/03/26 06:38:21;;;;;;;;;;;;;;;7.83;100.00;97705.44;5011582;28;19930;-83
2021/03/26 06:40:51;;;;;;;;;;;;;;;7.87;100.00;97733.97;5002735;28;19925;-83
2021/03/26 06:43:37;;;;;;;;;;;;;;;7.93;100.00;97736.97;5069458;28;21690;-84
2021/03/26 06:49:22;;;;;;;;;;;;;;;7.96;100.00;97702.72;5049484;28;19929;-79
2021/03/26 06:52:10;;;;;;;;;;;;;;;8.02;100.00;97706.53;5069669;28;19954;-86
2021/03/26 06:55:00;;;;;;;;;;;;;;;8.07;100.00;97709.56;5074200;28;19924;-82
2021/03/26 06:57:56;;;;;;;;;;;;;;;8.04;100.00;97704.88;5077834;28;20443;-81
2021/03/26 07:00:42;;;;;;;;;;;;;;;8.13;100.00;97699.47;5023049;28;20000;-81
2021/03/26 07:03:22;;;;;;;;;;;;;;;8.24;100.00;97702.75;5037195;28;19932;-82
2021/03/26 07:05:57;;;;;;;;;;;;;;;8.31;100.00;97696.22;5012766;28;19948;-82
2021/03/26 07:08:44;;;;;;;;;;;;;;;8.30;100.00;97678.72;5014292;28;20008;-80
2021/03/26 07:11:19;;;;;;;;;;;;;;;8.31;100.00;97685.06;4991367;28;19925;-82
2021/03/26 07:13:57;;;;;;;;;;;;;;;8.43;100.00;97681.53;5028667;28;20016;-82
2021/03/26 07:16:26;;;;;;;;;;;;;;;8.45;100.00;97673.53;5014595;28;19933;-82
2021/03/26 07:19:18;;;;;;;;;;;;;;;8.50;100.00;97670.97;5011493;28;19929;-82
2021/03/26 07:22:03;;;;;;;;;;;;;;;8.63;100.00;97652.28;5000555;28;19947;-82
2021/03/26 07:24:36;;;;;;;;;;;;;;;8.82;100.00;97645.72;5031353;28;19967;-81
2021/03/26 07:27:21;;;;;;;;;;;;;;;9.01;100.00;97639.13;5029138;28;19925;-82
2021/03/26 07:29:54;;;;;;;;;;;;;;;9.13;100.00;97635.56;5032137;28;19936;-82
2021/03/26 07:32:32;;;;;;;;;;;;;;;8.95;100.00;97615.84;5034126;28;19925;-81
2021/03/26 07:35:05;;;;;;;;;;;;;;;8.79;100.00;97616.00;5022674;28;20348;-82
2021/03/26 07:37:41;;;;;;;;;;;;;;;8.97;100.00;97626.56;5067611;28;20012;-82
2021/03/26 07:40:14;;;;;;;;;;;;;;;9.05;100.00;97625.09;5098598;28;19930;-81
2021/03/26 07:42:57;;;;;;;;;;;;;;;9.24;100.00;97612.16;5122406;27;20014;-82
2021/03/26 07:45:24;;;;;;;;;;;;;;;9.70;100.00;97611.31;5081777;27;19924;-82
2021/03/26 07:47:51;;;;;;;;;;;;;;;10.06;100.00;97603.22;5111179;28;19924;-81
2021/03/26 07:50:26;;;;;;;;;;;;;;;10.01;100.00;97606.63;5113829;27;19927;-79
2021/03/26 07:52:56;;;;;;;;;;;;;;;10.15;100.00;97597.75;5117337;28;19924;-79
2021/03/26 07:55:42;;;;;;;;;;;;;;;9.85;100.00;97613.16;5114231;27;19923;-79
2021/03/26 07:58:08;;;;;;;;;;;;;;;9.69;100.00;97604.19;5138439;27;20298;-80
2021/03/26 08:00:50;;;;;;;;;;;;;;;9.54;100.00;97608.72;5105356;27;19924;-79
2021/03/26 08:03:23;;;;;;;;;;;;;;;9.44;100.00;97602.28;5109529;28;19931;-80
2021/03/26 08:06:14;;;;;;;;;;;;;;;9.24;100.00;97598.22;5110246;27;19923;-80
2021/03/26 08:09:00;;;;;;;;;;;;;;;9.46;100.00;97599.81;5103435;28;19977;-81
2021/03/26 08:11:45;;;;;;;;;;;;;;;9.32;100.00;97585.56;5099488;28;20374;-81
2021/03/26 08:14:20;;;;;;;;;;;;;;;9.34;100.00;97577.56;5116039;28;20182;-81
2021/03/26 08:16:50;;;;;;;;;;;;;;;9.32;100.00;97552.91;5097959;28;20290;-81
2021/03/26 08:19:29;;;;;;;;;;;;;;;9.19;100.00;97578.03;5117602;27;20309;-81
2021/03/26 08:22:12;;;;;;;;;;;;;;;9.03;100.00;97567.03;5098399;28;19923;-81
2021/03/26 08:24:38;;;;;;;;;;;;;;;8.87;100.00;97555.28;5083005;28;19924;-81
2021/03/26 08:27:05;;;;;;;;;;;;;;;8.83;100.00;97538.66;5086591;28;19923;-81
2021/03/26 08:29:41;;;;;;;;;;;;;;;8.73;100.00;97539.81;5116554;28;20294;-80
2021/03/26 08:32:10;;;;;;;;;;;;;;;8.73;100.00;97576.00;5098524;28;19985;-81
2021/03/26 08:34:49;;;;;;;;;;;;;;;8.77;100.00;97584.22;5098457;28;19924;-81
2021/03/26 08:37:39;;;;;;;;;;;;;;;8.70;100.00;97576.91;5097825;27;19935;-81
2021/03/26 08:40:11;;;;;;;;;;;;;;;8.80;100.00;97572.19;5055341;28;19932;-81
2021/03/26 08:42:43;;;;;;;;;;;;;;;8.70;100.00;97588.03;5036854;28;20335;-81
2021/03/26 08:45:09;;;;;;;;;;;;;;;8.68;100.00;97587.69;5038457;28;20498;-81
2021/03/26 08:47:51;;;;;;;;;;;;;;;8.66;100.00;97578.25;5056440;28;20494;-81
2021/03/26 08:50:18;;;;;;;;;;;;;;;8.55;100.00;97592.50;5073235;28;19925;-80
2021/03/26 08:52:45;;;;;;;;;;;;;;;8.56;100.00;97594.03;5073611;28;20299;-81
2021/03/26 08:55:34;;;;;;;;;;;;;;;8.47;100.00;97607.84;5040756;28;20013;-80
2021/03/26 08:58:19;;;;;;;;;;;;;;;8.39;100.00;97595.38;5073447;28;20014;-81
2021/03/26 09:00:48;;;;;;;;;;;;;;;8.29;100.00;97609.59;5056966;28;19932;-80
2021/03/26 09:03:18;;;;;;;;;;;;;;;8.27;100.00;97617.63;5072705;28;20417;-81
2021/03/26 09:05:51;;;;;;;;;;;;;;;8.19;100.00;97608.69;5072930;28;19932;-79
2021/03/26 09:08:27;;;;;;;;;;;;;;;8.08;100.00;97605.44;5072724;28;20023;-80
2021/03/26 09:11:06;;;;;;;;;;;;;;;8.06;100.00;97646.81;5072826;28;19967;-77
2021/03/26 09:13:36;;;;;;;;;;;;;;;7.60;100.00;97669.53;5056001;28;19925;-81
2021/03/26 09:16:12;;;;;;;;;;;;;;;7.26;100.00;97663.66;5073499;28;20480;-79
2021/03/26 09:18:39;;;;;;;;;;;;;;;6.94;100.00;97666.41;5122461;27;20450;-86
2021/03/26 09:21:12;;;;;;;;;;;;;;;6.85;100.00;97674.56;5091547;27;20547;-86
2021/03/26 09:23:54;;;;;;;;;;;;;;;6.84;100.00;97673.03;5109019;28;19924;-85
2021/03/26 09:26:40;;;;;;;;;;;;;;;6.74;100.00;97665.72;5101869;27;20026;-84
2021/03/26 09:29:10;;;;;;;;;;;;;;;6.82;100.00;97670.69;5070833;28;19924;-83
2021/03/26 09:31:43;;;;;;;;;;;;;;;6.88;100.00;97657.06;5070722;27;19924;-86
2021/03/26 09:34:32;;;;;;;;;;;;;;;6.95;100.00;97662.44;5113467;27;19923;-86
2021/03/26 09:37:05;;;;;;;;;;;;;;;6.93;100.00;97665.66;5095128;27;19923;-86
2021/03/26 09:43:15;;;;;;;;;;;;;;;7.15;100.00;97658.38;5100541;28;20615;-86
2021/03/26 09:45:46;;;;;;;;;;;;;;;7.14;100.00;97665.16;5093619;28;19931;-86
2021/03/26 09:48:13;;;;;;;;;;;;;;;7.23;100.00;97658.97;5077158;28;19923;-86
2021/03/26 09:50:45;;;;;;;;;;;;;;;7.35;100.00;97664.63;5105996;27;19932;-86
2021/03/26 09:53:13;;;;;;;;;;;;;;;7.36;100.00;97663.38;5123455;27;19924;-86
2021/03/26 09:55:41;;;;;;;;;;;;;;;7.42;100.00;97682.31;5087074;28;19923;-87
2021/03/26 09:58:20;;;;;;;;;;;;;;;6.26;100.00;97696.09;5076093;28;20421;-87
2021/03/26 10:00:55;;;;;;;;;;;;;;;5.52;100.00;97697.50;5096242;28;19931;-78
2021/03/26 10:03:41;;;;;;;;;;;;;;;5.23;100.00;97704.72;5107690;28;20370;-81
2021/03/26 10:06:26;;;;;;;;;;;;;;;4.97;100.00;97724.91;5088502;28;19924;-84
2021/03/26 10:09:08;;;;;;;;;;;;;;;4.87;100.00;97726.66;5077029;28;19931;-83
2021/03/26 10:11:54;;;;;;;;;;;;;;;4.92;100.00;97723.38;5123309;27;19923;-83
2021/03/26 10:14:23;;;;;;;;;;;;;;;4.91;100.00;97741.22;5077353;28;19935;-83
2021/03/26 10:17:13;;;;;;;;;;;;;;;4.97;100.00;97747.84;5076941;27;19936;-83
2021/03/26 10:19:44;;;;;;;;;;;;;;;4.98;100.00;97756.94;5102781;28;19928;-83
2021/03/26 10:22:20;;;;;;;;;;;;;;;5.00;100.00;97760.84;5096234;27;19923;-85
2021/03/26 10:24:53;;;;;;;;;;;;;;;4.88;100.00;97755.88;5073132;28;20007;-85
2021/03/26 10:27:29;;;;;;;;;;;;;;;4.90;100.00;97772.88;5070414;28;19924;-80
2021/03/26 10:30:02;;;;;;;;;;;;;;;4.86;100.00;97769.34;5081760;28;19924;-80
2021/03/26 10:32:30;;;;;;;;;;;;;;;4.93;100.00;97765.69;5090025;28;19930;-85
2021/03/26 10:34:58;;;;;;;;;;;;;;;5.01;100.00;97779.00;5119890;27;20428;-85
2021/03/26 10:37:39;;;;;;;;;;;;;;;4.97;100.00;97772.75;5059348;28;19947;-87
2021/03/26 10:40:14;;;;;;;;;;;;;;;5.14;100.00;97770.91;5100418;28;19930;-86
2021/03/26 10:42:41;;;;;;;;;;;;;;;5.29;100.00;97755.66;5092734;28;19924;-86
2021/03/26 10:45:28;;;;;;;;;;;;;;;5.32;100.00;97763.13;5092661;28;19970;-85
2021/03/26 10:47:57;;;;;;;;;;;;;;;5.38;100.00;97762.22;5077571;28;19928;-85
2021/03/26 10:50:43;;;;;;;;;;;;;;;5.34;100.00;97755.97;5104636;27;19927;-81
2021/03/26 10:53:13;;;;;;;;;;;;;;;5.30;100.00;97766.31;5070140;28;19928;-83
2021/03/26 10:55:43;;;;;;;;;;;;;;;5.27;100.00;97758.06;5082942;28;19924;-82
2021/03/26 10:58:16;;;;;;;;;;;;;;;5.37;100.00;97771.75;5107359;28;19923;-82
2021/03/26 11:00:45;;;;;;;;;;;;;;;5.58;100.00;97781.69;5101093;28;20018;-83
2021/03/26 11:03:12;;;;;;;;;;;;;;;5.49;100.00;97773.94;5099553;28;19928;-82
2021/03/26 11:05:59;;;;;;;;;;;;;;;5.56;100.00;97779.34;5099497;28;19989;-82
2021/03/26 11:08:34;;;;;;;;;;;;;;;5.61;100.00;97772.53;5098310;27;19923;-87
2021/03/26 11:11:06;;;;;;;;;;;;;;;5.81;100.00;97755.97;5087311;28;19924;-85
2021/03/26 11:13:53;;;;;;;;;;;;;;;5.91;100.00;97768.91;5090499;27;20386;-87
2021/03/26 11:16:31;;;;;;;;;;;;;;;6.02;100.00;97777.78;5103879;27;19927;-86
2021/03/26 11:19:05;;;;;;;;;;;;;;;5.98;100.00;97761.22;5108738;27;19973;-86
2021/03/26 11:21:54;;;;;;;;;;;;;;;6.11;100.00;97753.06;5096912;28;19924;-84
2021/03/26 11:24:23;;;;;;;;;;;;;;;6.20;100.00;97753.28;5076057;27;19924;-84
2021/03/26 11:27:09;;;;;;;;;;;;;;;6.16;100.00;97756.13;5099253;27;20393;-88
2021/03/26 11:29:39;;;;;;;;;;;;;;;6.16;100.00;97758.91;5060360;28;19924;-83
2021/03/26 11:32:12;;;;;;;;;;;;;;;6.08;100.00;97759.44;5127580;27;19924;-85
2021/03/26 11:35:01;;;;;;;;;;;;;;;6.02;100.00;97756.41;5119086;27;19923;-83
2021/03/26 11:37:35;;;;;;;;;;;;;;;6.11;100.00;97742.75;5082448;28;20057;-86
2021/03/26 11:40:07;;;;;;;;;;;;;;;6.07;100.00;97738.47;5078312;27;19977;-82
2021/03/26 11:42:48;;;;;;;;;;;;;;;6.10;100.00;97746.75;5096166;28;19923;-79
2021/03/26 11:45:29;;;;;;;;;;;;;;;6.15;100.00;97742.69;5096175;28;19930;-83
2021/03/26 11:47:59;;;;;;;;;;;;;;;6.34;100.00;97744.69;5087371;27;20010;-86
2021/03/26 11:50:28;;;;;;;;;;;;;;;6.50;100.00;97737.19;5077469;28;20010;-88
2021/03/26 11:52:58;;;;;;;;;;;;;;;6.59;100.00;97744.94;5093545;28;19965;-86
2021/03/26 11:55:34;;;;;;;;;;;;;;;6.76;100.00;97736.25;5088952;27;19924;-87
2021/03/26 11:58:04;;;;;;;;;;;;;;;6.73;100.00;97730.75;5101787;27;19936;-85
2021/03/26 12:00:32;;;;;;;;;;;;;;;6.62;100.00;97733.78;5079149;28;20022;-87
2021/03/26 12:03:02;;;;;;;;;;;;;;;6.77;100.00;97734.25;5128845;27;19930;-83
2021/03/26 12:05:47;;;;;;;;;;;;;;;6.89;100.00;97737.13;5101519;28;19924;-84
2021/03/26 12:08:26;;;;;;;;;;;;;;;7.13;100.00;97743.34;5099084;27;20281;-84
2021/03/26 12:11:18;;;;;;;;;;;;;;;7.33;100.00;97744.03;5134725;27;19923;-84
2021/03/26 12:14:04;;;;;;;;;;;;;;;7.27;100.00;97737.44;5083149;27;19931;-86
2021/03/26 12:16:32;;;;;;;;;;;;;;;7.44;100.00;97732.69;5106856;28;19930;-84
2021/03/26 12:19:00;;;;;;;;;;;;;;;7.32;100.00;97740.50;5104047;28;19971;-84
2021/03/26 12:21:42;;;;;;;;;;;;;;;7.53;100.00;97716.94;5095674;28;19923;-84
2021/03/26 12:24:25;;;;;;;;;;;;;;;7.42;100.00;97726.78;5089802;27;20283;-84
2021/03/26 12:26:52;;;;;;;;;;;;;;;7.25;100.00;97728.78;5126298;27;19945;-84
2021/03/26 12:29:18;;;;;;;;;;;;;;;7.50;100.00;97734.50;5096357;28;19928;-84
2021/03/26 12:31:49;;;;;;;;;;;;;;;7.75;100.00;97740.22;5063056;28;19924;-84
2021/03/26 12:34:26;;;;;;;;;;;;;;;7.97;100.00;97721.75;5080682;27;19930;-84
2021/03/26 12:36:58;;;;;;;;;;;;;;;8.00;100.00;97712.53;5101356;28;19924;-84
2021/03/26 12:39:24;;;;;;;;;;;;;;;8.30;100.00;97711.34;5076205;27;19924;-84
2021/03/26 12:42:00;;;;;;;;;;;;;;;8.26;100.00;97711.44;5120562;27;19963;-84
2021/03/26 12:44:33;;;;;;;;;;;;;;;7.91;100.00;97712.38;5101516;28;19923;-84
2021/03/26 12:47:06;;;;;;;;;;;;;;;7.88;100.00;97715.25;5100675;28;19924;-84
2021/03/26 12:49:55;;;;;;;;;;;;;;;8.10;100.00;97721.81;5109373;27;19930;-84
2021/03/26 12:52:33;;;;;;;;;;;;;;;8.33;100.00;97727.94;5103882;28;19951;-84
2021/03/26 12:55:18;;;;;;;;;;;;;;;8.52;100.00;97717.84;5092608;28;19928;-84
2021/03/26 12:57:50;;;;;;;;;;;;;;;8.70;100.00;97718.13;5127338;27;20372;-84
2021/03/26 13:00:18;;;;;;;;;;;;;;;8.77;100.00;97718.69;5104991;27;19923;-84
2021/03/26 13:02:57;;;;;;;;;;;;;;;8.86;100.00;97723.63;5118393;27;19927;-84
2021/03/26 13:05:26;;;;;;;;;;;;;;;9.28;100.00;97701.97;5089853;28;19924;-84
2021/03/26 13:07:53;;;;;;;;;;;;;;;9.35;100.00;97707.31;5097890;28;19959;-84
2021/03/26 13:10:19;;;;;;;;;;;;;;;9.15;100.00;97699.97;5122563;27;19923;-84
2021/03/26 13:12:47;;;;;;;;;;;;;;;9.00;100.00;97703.66;5075645;28;19931;-88
2021/03/26 13:15:16;;;;;;;;;;;;;;;8.63;100.00;97696.06;5104531;28;19923;-86
2021/03/26 13:17:44;;;;;;;;;;;;;;;8.60;100.00;97694.94;5098590;28;19924;-85
2021/03/26 13:20:13;;;;;;;;;;;;;;;8.73;100.00;97700.53;5110272;28;19931;-86
2021/03/26 13:22:43;;;;;;;;;;;;;;;9.00;100.00;97704.44;5097581;28;19923;-85
2021/03/26 13:25:15;;;;;;;;;;;;;;;9.15;100.00;97702.78;5069765;27;20286;-84
2021/03/26 13:28:05;;;;;;;;;;;;;;;9.13;100.00;97715.59;5105329;28;19931;-86
2021/03/26 13:30:34;;;;;;;;;;;;;;;8.87;100.00;97700.88;5102537;27;19931;-85
2021/03/26 13:33:14;;;;;;;;;;;;;;;8.70;100.00;97698.63;5089075;28;19924;-85
2021/03/26 13:35:44;;;;;;;;;;;;;;;8.50;100.00;97698.81;5083374;28;20389;-84
2021/03/26 13:38:14;;;;;;;;;;;;;;;8.79;100.00;97702.31;5086928;27;19979;-84
2021/03/26 13:40:43;;;;;;;;;;;;;;;8.97;100.00;97699.78;5076306;28;19923;-84